createdAt,value
2018-02-24T00:00:15.320Z,1009.2
2018-02-24T00:01:16.056Z,1009.3
2018-02-24T00:02:16.855Z,1009.2
2018-02-24T00:03:17.569Z,1009.3
2018-02-24T00:04:18.283Z,1009.2
2018-02-24T00:05:19.008Z,1009.3
2018-02-24T00:06:19.730Z,1009.3
2018-02-24T00:07:20.445Z,1009.2
2018-02-24T00:08:22.397Z,1009.3
2018-02-24T00:09:23.381Z,1009.2
2018-02-24T00:10:24.150Z,1009.3
2018-02-24T00:11:24.909Z,1009.3
2018-02-24T00:12:25.780Z,1009.3
2018-02-24T00:13:26.970Z,1009.3
2018-02-24T00:14:28.546Z,1009.3
2018-02-24T00:15:29.330Z,1009.4
2018-02-24T00:16:30.117Z,1009.3
2018-02-24T00:17:30.935Z,1009.4
2018-02-24T00:18:31.668Z,1009.3
2018-02-24T00:19:32.390Z,1009.3
2018-02-24T00:20:33.168Z,1009.3
2018-02-24T00:21:33.892Z,1009.3
2018-02-24T00:22:34.683Z,1009.3
2018-02-24T00:23:35.458Z,1009.3
2018-02-24T00:24:36.175Z,1009.4
2018-02-24T00:25:36.908Z,1009.4
2018-02-24T00:26:37.635Z,1009.3
2018-02-24T00:27:38.346Z,1009.4
2018-02-24T00:28:39.061Z,1009.4
2018-02-24T00:29:39.784Z,1009.4
2018-02-24T00:30:40.567Z,1009.4
2018-02-24T00:31:41.280Z,1009.4
2018-02-24T00:32:41.993Z,1009.4
2018-02-24T00:33:42.719Z,1009.4
2018-02-24T00:34:43.520Z,1009.4
2018-02-24T00:35:44.187Z,1009.3
2018-02-24T00:36:44.981Z,1009.4
2018-02-24T00:37:45.720Z,1009.4
2018-02-24T00:38:46.506Z,1009.4
2018-02-24T00:39:47.298Z,1009.4
2018-02-24T00:40:48.085Z,1009.4
2018-02-24T00:41:48.810Z,1009.4
2018-02-24T00:42:49.589Z,1009.4
2018-02-24T00:43:50.305Z,1009.4
2018-02-24T00:44:51.041Z,1009.4
2018-02-24T00:45:51.807Z,1009.4
2018-02-24T00:46:52.586Z,1009.4
2018-02-24T00:47:53.297Z,1009.4
2018-02-24T00:48:54.090Z,1009.5
2018-02-24T00:49:54.808Z,1009.5
2018-02-24T00:50:55.589Z,1009.4
2018-02-24T00:51:56.369Z,1009.5
2018-02-24T00:52:57.085Z,1009.5
2018-02-24T00:53:57.798Z,1009.4
2018-02-24T00:54:58.569Z,1009.5
2018-02-24T00:55:59.348Z,1009.5
2018-02-24T00:57:00.078Z,1009.5
2018-02-24T00:58:00.796Z,1009.4
2018-02-24T00:59:01.500Z,1009.5
2018-02-24T01:00:02.214Z,1009.4
2018-02-24T01:01:02.942Z,1009.4
2018-02-24T01:02:03.665Z,1009.4
2018-02-24T01:03:04.380Z,1009.5
2018-02-24T01:04:05.145Z,1009.4
2018-02-24T01:05:05.879Z,1009.5
2018-02-24T01:06:06.595Z,1009.5
2018-02-24T01:07:07.329Z,1009.5
2018-02-24T01:08:08.091Z,1009.5
2018-02-24T01:09:08.853Z,1009.5
2018-02-24T01:10:09.643Z,1009.5
2018-02-24T01:11:10.418Z,1009.4
2018-02-24T01:12:11.220Z,1009.5
2018-02-24T01:13:12.007Z,1009.4
2018-02-24T01:14:12.715Z,1009.5
2018-02-24T01:15:13.437Z,1009.4
2018-02-24T01:16:14.176Z,1009.4
2018-02-24T01:17:14.902Z,1009.4
2018-02-24T01:18:15.680Z,1009.5
2018-02-24T01:19:16.472Z,1009.4
2018-02-24T01:20:17.197Z,1009.5
2018-02-24T01:21:17.914Z,1009.4
2018-02-24T01:22:18.655Z,1009.4
2018-02-24T01:23:19.365Z,1009.4
2018-02-24T01:24:20.088Z,1009.4
2018-02-24T01:25:20.793Z,1009.4
2018-02-24T01:26:21.586Z,1009.4
2018-02-24T01:27:22.309Z,1009.4
2018-02-24T01:28:23.136Z,1009.4
2018-02-24T01:29:23.847Z,1009.4
2018-02-24T01:30:24.570Z,1009.4
2018-02-24T01:31:25.298Z,1009.4
2018-02-24T01:32:26.008Z,1009.4
2018-02-24T01:33:26.774Z,1009.4
2018-02-24T01:34:27.495Z,1009.4
2018-02-24T01:35:28.221Z,1009.4
2018-02-24T01:36:28.935Z,1009.4
2018-02-24T01:37:29.659Z,1009.4
2018-02-24T01:38:30.431Z,1009.5
2018-02-24T01:39:31.154Z,1009.4
2018-02-24T01:40:31.879Z,1009.4
2018-02-24T01:41:32.700Z,1009.4
2018-02-24T01:42:33.377Z,1009.4
2018-02-24T01:43:34.171Z,1009.4
2018-02-24T01:44:34.961Z,1009.3
2018-02-24T01:45:35.693Z,1009.3
2018-02-24T01:46:36.427Z,1009.3
2018-02-24T01:47:37.196Z,1009.3
2018-02-24T01:48:37.995Z,1009.2
2018-02-24T01:49:38.738Z,1009.3
2018-02-24T01:50:39.468Z,1009.3
2018-02-24T01:51:40.188Z,1009.2
2018-02-24T01:52:40.912Z,1009.2
2018-02-24T01:53:41.650Z,1009.2
2018-02-24T01:54:42.362Z,1009.2
2018-02-24T01:55:43.080Z,1009.2
2018-02-24T01:56:43.781Z,1009.3
2018-02-24T01:57:44.509Z,1009.2
2018-02-24T01:58:45.269Z,1009.3
2018-02-24T01:59:46.109Z,1009.4
2018-02-24T02:00:46.822Z,1009.4
2018-02-24T02:01:47.534Z,1009.4
2018-02-24T02:02:48.248Z,1009.4
2018-02-24T02:03:48.970Z,1009.2
2018-02-24T02:04:49.743Z,1009.3
2018-02-24T02:05:50.515Z,1009.4
2018-02-24T02:06:51.227Z,1009.3
2018-02-24T02:07:52.025Z,1009.4
2018-02-24T02:08:52.788Z,1009.4
2018-02-24T02:09:53.639Z,1009.4
2018-02-24T02:10:54.439Z,1009.4
2018-02-24T02:11:55.156Z,1009.4
2018-02-24T02:12:55.889Z,1009.5
2018-02-24T02:13:56.662Z,1009.4
2018-02-24T02:14:57.390Z,1009.5
2018-02-24T02:15:58.177Z,1009.4
2018-02-24T02:16:59.021Z,1009.5
2018-02-24T02:17:59.726Z,1009.5
2018-02-24T02:19:00.449Z,1009.5
2018-02-24T02:20:01.170Z,1009.5
2018-02-24T02:21:01.903Z,1009.5
2018-02-24T02:22:02.606Z,1009.5
2018-02-24T02:23:03.357Z,1009.4
2018-02-24T02:24:04.100Z,1009.5
2018-02-24T02:25:04.807Z,1009.5
2018-02-24T02:26:05.599Z,1009.4
2018-02-24T02:27:06.390Z,1009.4
2018-02-24T02:28:07.108Z,1009.4
2018-02-24T02:29:07.839Z,1009.5
2018-02-24T02:30:08.543Z,1009.4
2018-02-24T02:31:09.274Z,1009.4
2018-02-24T02:32:10.068Z,1009.4
2018-02-24T02:33:10.842Z,1009.4
2018-02-24T02:34:11.567Z,1009.4
2018-02-24T02:35:12.280Z,1009.4
2018-02-24T02:36:13.000Z,1009.4
2018-02-24T02:37:13.717Z,1009.4
2018-02-24T02:38:14.429Z,1009.3
2018-02-24T02:39:15.199Z,1009.3
2018-02-24T02:40:15.932Z,1009.3
2018-02-24T02:41:16.677Z,1009.4
2018-02-24T02:42:17.372Z,1009.3
2018-02-24T02:43:18.105Z,1009.4
2018-02-24T02:44:18.879Z,1009.4
2018-02-24T02:45:19.594Z,1009.4
2018-02-24T02:46:20.309Z,1009.4
2018-02-24T02:47:21.041Z,1009.4
2018-02-24T02:48:21.817Z,1009.5
2018-02-24T02:49:22.536Z,1009.4
2018-02-24T02:50:23.257Z,1009.4
2018-02-24T02:51:23.980Z,1009.4
2018-02-24T02:52:24.752Z,1009.4
2018-02-24T02:53:25.463Z,1009.4
2018-02-24T02:54:26.189Z,1009.4
2018-02-24T02:55:26.909Z,1009.4
2018-02-24T02:56:27.630Z,1009.4
2018-02-24T02:57:28.361Z,1009.4
2018-02-24T02:58:29.090Z,1009.4
2018-02-24T02:59:29.888Z,1009.4
2018-02-24T03:00:30.611Z,1009.4
2018-02-24T03:01:31.396Z,1009.4
2018-02-24T03:02:32.140Z,1009.4
2018-02-24T03:03:32.895Z,1009.4
2018-02-24T03:04:33.631Z,1009.4
2018-02-24T03:05:34.353Z,1009.4
2018-02-24T03:06:35.159Z,1009.4
2018-02-24T03:07:35.854Z,1009.4
2018-02-24T03:08:36.636Z,1009.4
2018-02-24T03:09:37.348Z,1009.4
2018-02-24T03:10:38.077Z,1009.4
2018-02-24T03:11:38.798Z,1009.4
2018-02-24T03:12:39.565Z,1009.4
2018-02-24T03:13:40.336Z,1009.4
2018-02-24T03:14:41.067Z,1009.4
2018-02-24T03:15:41.799Z,1009.5
2018-02-24T03:16:42.512Z,1009.4
2018-02-24T03:17:43.297Z,1009.5
2018-02-24T03:18:44.014Z,1009.4
2018-02-24T03:19:44.806Z,1009.4
2018-02-24T03:20:45.514Z,1009.4
2018-02-24T03:21:46.234Z,1009.5
2018-02-24T03:22:46.996Z,1009.5
2018-02-24T03:23:47.714Z,1009.4
2018-02-24T03:24:48.434Z,1009.4
2018-02-24T03:25:49.217Z,1009.5
2018-02-24T03:26:49.988Z,1009.5
2018-02-24T03:27:50.763Z,1009.5
2018-02-24T03:28:51.537Z,1009.4
2018-02-24T03:29:52.326Z,1009.5
2018-02-24T03:30:53.056Z,1009.5
2018-02-24T03:31:53.759Z,1009.5
2018-02-24T03:32:54.489Z,1009.5
2018-02-24T03:33:55.207Z,1009.5
2018-02-24T03:34:55.928Z,1009.5
2018-02-24T03:35:56.648Z,1009.5
2018-02-24T03:36:57.369Z,1009.5
2018-02-24T03:37:58.139Z,1009.5
2018-02-24T03:38:58.899Z,1009.5
2018-02-24T03:39:59.612Z,1009.5
2018-02-24T03:41:00.328Z,1009.6
2018-02-24T03:42:01.052Z,1009.6
2018-02-24T03:43:01.835Z,1009.5
2018-02-24T03:44:02.546Z,1009.6
2018-02-24T03:45:03.258Z,1009.6
2018-02-24T03:46:04.068Z,1009.6
2018-02-24T03:47:04.894Z,1009.6
2018-02-24T03:48:05.614Z,1009.6
2018-02-24T03:49:06.347Z,1009.6
2018-02-24T03:50:07.080Z,1009.6
2018-02-24T03:51:07.800Z,1009.6
2018-02-24T03:52:08.582Z,1009.7
2018-02-24T03:53:09.358Z,1009.6
2018-02-24T03:54:10.078Z,1009.6
2018-02-24T03:55:10.884Z,1009.7
2018-02-24T03:56:11.656Z,1009.7
2018-02-24T03:57:12.376Z,1009.8
2018-02-24T03:58:13.101Z,1009.7
2018-02-24T03:59:13.817Z,1009.8
2018-02-24T04:00:14.525Z,1009.8
2018-02-24T04:01:15.310Z,1009.7
2018-02-24T04:02:16.138Z,1009.7
2018-02-24T04:03:16.868Z,1009.8
2018-02-24T04:04:17.660Z,1009.8
2018-02-24T04:05:18.361Z,1009.8
2018-02-24T04:06:19.066Z,1009.8
2018-02-24T04:07:19.879Z,1009.8
2018-02-24T04:08:20.645Z,1009.8
2018-02-24T04:09:21.385Z,1009.8
2018-02-24T04:10:22.157Z,1009.9
2018-02-24T04:11:22.908Z,1009.8
2018-02-24T04:12:23.629Z,1010.0
2018-02-24T04:13:24.478Z,1009.9
2018-02-24T04:14:25.204Z,1009.9
2018-02-24T04:15:25.935Z,1009.9
2018-02-24T04:16:26.718Z,1009.9
2018-02-24T04:17:27.419Z,1010.0
2018-02-24T04:18:28.139Z,1010.0
2018-02-24T04:19:28.930Z,1009.9
2018-02-24T04:20:29.699Z,1010.0
2018-02-24T04:21:30.434Z,1010.0
2018-02-24T04:22:31.180Z,1010.0
2018-02-24T04:23:31.987Z,1010.0
2018-02-24T04:24:32.727Z,1010.0
2018-02-24T04:25:33.469Z,1010.0
2018-02-24T04:26:34.123Z,1010.0
2018-02-24T04:27:34.889Z,1010.1
2018-02-24T04:28:35.607Z,1010.1
2018-02-24T04:29:36.425Z,1010.1
2018-02-24T04:30:37.146Z,1010.1
2018-02-24T04:31:37.869Z,1010.1
2018-02-24T04:32:38.588Z,1010.1
2018-02-24T04:33:39.297Z,1010.2
2018-02-24T04:34:40.057Z,1010.2
2018-02-24T04:35:40.772Z,1010.1
2018-02-24T04:36:41.497Z,1010.2
2018-02-24T04:37:42.213Z,1010.1
2018-02-24T04:38:42.941Z,1010.1
2018-02-24T04:39:43.747Z,1010.1
2018-02-24T04:40:44.467Z,1010.2
2018-02-24T04:41:45.191Z,1010.2
2018-02-24T04:42:45.898Z,1010.1
2018-02-24T04:43:46.609Z,1010.1
2018-02-24T04:44:47.376Z,1010.1
2018-02-24T04:45:48.109Z,1010.2
2018-02-24T04:46:48.912Z,1010.2
2018-02-24T04:47:49.690Z,1010.2
2018-02-24T04:48:50.409Z,1010.2
2018-02-24T04:49:51.179Z,1010.2
2018-02-24T04:50:51.956Z,1010.2
2018-02-24T04:51:52.649Z,1010.2
2018-02-24T04:52:53.367Z,1010.2
2018-02-24T04:53:54.102Z,1010.2
2018-02-24T04:54:54.894Z,1010.3
2018-02-24T04:55:55.670Z,1010.3
2018-02-24T04:56:56.397Z,1010.2
2018-02-24T04:57:57.134Z,1010.2
2018-02-24T04:58:57.917Z,1010.2
2018-02-24T04:59:58.685Z,1010.2
2018-02-24T05:00:59.401Z,1010.2
2018-02-24T05:02:00.206Z,1010.3
2018-02-24T05:03:00.946Z,1010.2
2018-02-24T05:04:01.656Z,1010.2
2018-02-24T05:05:02.382Z,1010.3
2018-02-24T05:06:03.095Z,1010.2
2018-02-24T05:07:03.878Z,1010.2
2018-02-24T05:08:04.675Z,1010.2
2018-02-24T05:09:05.448Z,1010.2
2018-02-24T05:10:06.176Z,1010.2
2018-02-24T05:11:06.894Z,1010.2
2018-02-24T05:12:07.617Z,1010.3
2018-02-24T05:13:08.407Z,1010.2
2018-02-24T05:14:09.192Z,1010.3
2018-02-24T05:15:09.988Z,1010.4
2018-02-24T05:16:10.774Z,1010.4
2018-02-24T05:17:11.577Z,1010.4
2018-02-24T05:18:12.290Z,1010.4
2018-02-24T05:19:13.007Z,1010.4
2018-02-24T05:20:13.733Z,1010.4
2018-02-24T05:21:14.457Z,1010.4
2018-02-24T05:22:15.305Z,1010.4
2018-02-24T05:23:16.047Z,1010.4
2018-02-24T05:24:16.774Z,1010.4
2018-02-24T05:25:17.474Z,1010.4
2018-02-24T05:26:18.199Z,1010.4
2018-02-24T05:27:18.941Z,1010.4
2018-02-24T05:28:19.713Z,1010.3
2018-02-24T05:29:20.471Z,1010.3
2018-02-24T05:30:21.259Z,1010.3
2018-02-24T05:31:21.974Z,1010.3
2018-02-24T05:32:22.687Z,1010.3
2018-02-24T05:33:23.440Z,1010.3
2018-02-24T05:34:24.152Z,1010.4
2018-02-24T05:35:24.868Z,1010.4
2018-02-24T05:36:25.603Z,1010.4
2018-02-24T05:37:26.365Z,1010.3
2018-02-24T05:38:27.090Z,1010.4
2018-02-24T05:39:27.853Z,1010.4
2018-02-24T05:40:28.588Z,1010.4
2018-02-24T05:41:29.322Z,1010.4
2018-02-24T05:42:30.063Z,1010.5
2018-02-24T05:43:30.864Z,1010.4
2018-02-24T05:44:31.626Z,1010.4
2018-02-24T05:45:32.339Z,1010.4
2018-02-24T05:46:33.157Z,1010.4
2018-02-24T05:47:33.875Z,1010.4
2018-02-24T05:48:34.595Z,1010.4
2018-02-24T05:49:35.385Z,1010.4
2018-02-24T05:50:36.103Z,1010.4
2018-02-24T05:51:36.892Z,1010.4
2018-02-24T05:52:37.667Z,1010.5
2018-02-24T05:53:38.394Z,1010.4
2018-02-24T05:54:39.112Z,1010.5
2018-02-24T05:55:39.824Z,1010.4
2018-02-24T05:56:40.604Z,1010.4
2018-02-24T05:57:41.337Z,1010.4
2018-02-24T05:58:42.057Z,1010.5
2018-02-24T05:59:42.762Z,1010.5
2018-02-24T06:00:43.567Z,1010.6
2018-02-24T06:01:44.335Z,1010.5
2018-02-24T06:02:45.025Z,1010.6
2018-02-24T06:03:45.795Z,1010.6
2018-02-24T06:04:46.516Z,1010.6
2018-02-24T06:05:47.235Z,1010.5
2018-02-24T06:06:47.993Z,1010.6
2018-02-24T06:07:48.712Z,1010.6
2018-02-24T06:08:49.508Z,1010.6
2018-02-24T06:09:50.277Z,1010.6
2018-02-24T06:10:51.067Z,1010.6
2018-02-24T06:11:51.798Z,1010.7
2018-02-24T06:12:52.576Z,1010.7
2018-02-24T06:13:53.374Z,1010.7
2018-02-24T06:14:54.173Z,1010.7
2018-02-24T06:15:54.899Z,1010.8
2018-02-24T06:16:55.665Z,1010.8
2018-02-24T06:17:56.459Z,1010.7
2018-02-24T06:18:57.188Z,1010.8
2018-02-24T06:19:57.903Z,1010.8
2018-02-24T06:20:58.626Z,1010.7
2018-02-24T06:21:59.351Z,1010.8
2018-02-24T06:23:00.077Z,1010.7
2018-02-24T06:24:00.802Z,1010.7
2018-02-24T06:25:01.558Z,1010.8
2018-02-24T06:26:02.330Z,1010.7
2018-02-24T06:27:03.106Z,1010.8
2018-02-24T06:28:03.848Z,1010.8
2018-02-24T06:29:04.617Z,1010.8
2018-02-24T06:30:05.418Z,1010.8
2018-02-24T06:31:06.138Z,1010.8
2018-02-24T06:32:06.856Z,1010.9
2018-02-24T06:33:07.585Z,1010.9
2018-02-24T06:34:08.306Z,1010.9
2018-02-24T06:35:09.033Z,1010.9
2018-02-24T06:36:09.810Z,1010.9
2018-02-24T06:37:10.646Z,1011.0
2018-02-24T06:38:11.360Z,1011.0
2018-02-24T06:39:12.147Z,1010.9
2018-02-24T06:40:12.957Z,1011.0
2018-02-24T06:41:13.727Z,1011.0
2018-02-24T06:42:14.501Z,1011.1
2018-02-24T06:43:15.216Z,1011.0
2018-02-24T06:44:16.025Z,1011.0
2018-02-24T06:45:16.713Z,1011.0
2018-02-24T06:46:17.427Z,1011.1
2018-02-24T06:47:18.217Z,1011.0
2018-02-24T06:48:18.988Z,1011.1
2018-02-24T06:49:19.728Z,1011.1
2018-02-24T06:50:20.448Z,1011.1
2018-02-24T06:51:21.160Z,1011.1
2018-02-24T06:52:21.876Z,1011.1
2018-02-24T06:53:22.587Z,1011.1
2018-02-24T06:54:23.305Z,1011.0
2018-02-24T06:55:24.031Z,1011.1
2018-02-24T06:56:24.753Z,1011.1
2018-02-24T06:57:25.484Z,1011.1
2018-02-24T06:58:26.204Z,1011.1
2018-02-24T06:59:26.975Z,1011.2
2018-02-24T07:00:27.686Z,1011.1
2018-02-24T07:01:28.429Z,1011.2
2018-02-24T07:02:29.233Z,1011.2
2018-02-24T07:03:30.006Z,1011.2
2018-02-24T07:04:30.729Z,1011.2
2018-02-24T07:05:31.447Z,1011.2
2018-02-24T07:06:32.202Z,1011.2
2018-02-24T07:07:32.934Z,1011.2
2018-02-24T07:08:33.660Z,1011.2
2018-02-24T07:09:34.393Z,1011.2
2018-02-24T07:10:35.124Z,1011.2
2018-02-24T07:11:35.852Z,1011.2
2018-02-24T07:12:36.574Z,1011.2
2018-02-24T07:13:37.307Z,1011.2
2018-02-24T07:14:38.036Z,1011.2
2018-02-24T07:15:38.756Z,1011.2
2018-02-24T07:16:39.504Z,1011.3
2018-02-24T07:17:40.286Z,1011.2
2018-02-24T07:18:40.997Z,1011.3
2018-02-24T07:19:41.711Z,1011.3
2018-02-24T07:20:42.504Z,1011.3
2018-02-24T07:21:43.233Z,1011.3
2018-02-24T07:22:43.948Z,1011.3
2018-02-24T07:23:44.735Z,1011.2
2018-02-24T07:24:45.528Z,1011.2
2018-02-24T07:25:46.252Z,1011.2
2018-02-24T07:26:47.018Z,1011.2
2018-02-24T07:27:47.812Z,1011.2
2018-02-24T07:28:48.577Z,1011.1
2018-02-24T07:29:49.308Z,1011.2
2018-02-24T07:30:50.086Z,1011.2
2018-02-24T07:31:50.881Z,1011.2
2018-02-24T07:32:51.604Z,1011.2
2018-02-24T07:33:52.443Z,1011.2
2018-02-24T07:34:53.149Z,1011.2
2018-02-24T07:35:53.851Z,1011.3
2018-02-24T07:36:54.584Z,1011.3
2018-02-24T07:37:55.353Z,1011.3
2018-02-24T07:38:56.070Z,1011.3
2018-02-24T07:39:56.867Z,1011.3
2018-02-24T07:40:57.587Z,1011.3
2018-02-24T07:41:58.370Z,1011.3
2018-02-24T07:42:59.090Z,1011.3
2018-02-24T07:43:59.809Z,1011.3
2018-02-24T07:45:00.580Z,1011.3
2018-02-24T07:46:01.300Z,1011.3
2018-02-24T07:47:02.054Z,1011.3
2018-02-24T07:48:02.795Z,1011.3
2018-02-24T07:49:03.567Z,1011.3
2018-02-24T07:50:04.335Z,1011.3
2018-02-24T07:51:05.050Z,1011.2
2018-02-24T07:52:05.778Z,1011.2
2018-02-24T07:53:06.553Z,1011.3
2018-02-24T07:54:07.345Z,1011.2
2018-02-24T07:55:08.113Z,1011.3
2018-02-24T07:56:08.831Z,1011.3
2018-02-24T07:57:09.558Z,1011.3
2018-02-24T07:58:10.386Z,1011.3
2018-02-24T07:59:11.129Z,1011.3
2018-02-24T08:00:11.850Z,1011.3
2018-02-24T08:01:12.617Z,1011.3
2018-02-24T08:02:13.351Z,1011.3
2018-02-24T08:03:14.130Z,1011.3
2018-02-24T08:04:14.877Z,1011.3
2018-02-24T08:05:15.647Z,1011.4
2018-02-24T08:06:16.416Z,1011.4
2018-02-24T08:07:17.123Z,1011.3
2018-02-24T08:08:17.863Z,1011.4
2018-02-24T08:09:18.633Z,1011.4
2018-02-24T08:10:19.372Z,1011.4
2018-02-24T08:11:20.129Z,1011.3
2018-02-24T08:12:20.830Z,1011.3
2018-02-24T08:13:21.574Z,1011.3
2018-02-24T08:14:22.359Z,1011.3
2018-02-24T08:15:23.086Z,1011.3
2018-02-24T08:16:23.847Z,1011.4
2018-02-24T08:17:24.620Z,1011.4
2018-02-24T08:18:25.426Z,1011.4
2018-02-24T08:19:26.158Z,1011.4
2018-02-24T08:20:26.892Z,1011.4
2018-02-24T08:21:27.662Z,1011.5
2018-02-24T08:22:28.445Z,1011.5
2018-02-24T08:23:29.191Z,1011.5
2018-02-24T08:24:30.005Z,1011.4
2018-02-24T08:25:30.786Z,1011.4
2018-02-24T08:26:31.548Z,1011.5
2018-02-24T08:27:32.268Z,1011.5
2018-02-24T08:28:33.038Z,1011.6
2018-02-24T08:29:33.763Z,1011.5
2018-02-24T08:30:34.489Z,1011.5
2018-02-24T08:31:35.273Z,1011.5
2018-02-24T08:32:36.074Z,1011.4
2018-02-24T08:33:36.922Z,1011.5
2018-02-24T08:34:37.635Z,1011.6
2018-02-24T08:35:38.353Z,1011.5
2018-02-24T08:36:39.077Z,1011.6
2018-02-24T08:37:39.824Z,1011.5
2018-02-24T08:38:40.559Z,1011.5
2018-02-24T08:39:41.328Z,1011.6
2018-02-24T08:40:42.120Z,1011.6
2018-02-24T08:41:42.880Z,1011.6
2018-02-24T08:42:43.638Z,1011.7
2018-02-24T08:43:44.402Z,1011.6
2018-02-24T08:44:45.145Z,1011.8
2018-02-24T08:45:45.914Z,1011.7
2018-02-24T08:46:46.646Z,1011.7
2018-02-24T08:47:47.368Z,1011.7
2018-02-24T08:48:48.090Z,1011.7
2018-02-24T08:49:48.819Z,1011.7
2018-02-24T08:50:49.559Z,1011.8
2018-02-24T08:51:50.280Z,1011.8
2018-02-24T08:52:50.998Z,1011.8
2018-02-24T08:53:51.717Z,1011.8
2018-02-24T08:54:52.445Z,1011.8
2018-02-24T08:55:53.182Z,1011.8
2018-02-24T08:56:54.001Z,1011.7
2018-02-24T08:57:54.718Z,1011.8
2018-02-24T08:58:55.436Z,1011.8
2018-02-24T08:59:56.166Z,1011.8
2018-02-24T09:00:56.879Z,1011.9
2018-02-24T09:01:57.587Z,1011.8
2018-02-24T09:02:58.320Z,1011.8
2018-02-24T09:03:59.027Z,1011.8
2018-02-24T09:04:59.765Z,1011.8
2018-02-24T09:06:00.479Z,1011.9
2018-02-24T09:07:01.204Z,1011.9
2018-02-24T09:08:01.920Z,1011.9
2018-02-24T09:09:02.662Z,1011.8
2018-02-24T09:10:03.388Z,1011.9
2018-02-24T09:11:04.211Z,1011.8
2018-02-24T09:12:04.983Z,1011.9
2018-02-24T09:13:05.777Z,1011.9
2018-02-24T09:14:06.467Z,1011.9
2018-02-24T09:15:07.239Z,1011.9
2018-02-24T09:16:08.020Z,1011.9
2018-02-24T09:17:08.754Z,1011.9
2018-02-24T09:18:09.503Z,1011.9
2018-02-24T09:19:10.231Z,1011.9
2018-02-24T09:20:10.962Z,1011.9
2018-02-24T09:21:11.758Z,1011.9
2018-02-24T09:22:12.482Z,1012.0
2018-02-24T09:23:13.203Z,1012.1
2018-02-24T09:24:13.990Z,1011.9
2018-02-24T09:25:14.791Z,1012.0
2018-02-24T09:26:15.528Z,1012.0
2018-02-24T09:27:16.338Z,1012.0
2018-02-24T09:28:17.070Z,1012.0
2018-02-24T09:29:17.785Z,1012.1
2018-02-24T09:30:18.517Z,1012.1
2018-02-24T09:31:19.255Z,1012.0
2018-02-24T09:32:19.975Z,1012.0
2018-02-24T09:33:20.700Z,1012.1
2018-02-24T09:34:21.492Z,1012.0
2018-02-24T09:35:22.262Z,1012.0
2018-02-24T09:36:23.032Z,1012.0
2018-02-24T09:37:23.755Z,1012.1
2018-02-24T09:38:24.488Z,1012.1
2018-02-24T09:39:25.200Z,1012.1
2018-02-24T09:40:25.940Z,1012.1
2018-02-24T09:41:26.686Z,1012.1
2018-02-24T09:42:27.482Z,1012.2
2018-02-24T09:43:28.212Z,1012.1
2018-02-24T09:44:29.019Z,1012.1
2018-02-24T09:45:29.797Z,1012.2
2018-02-24T09:46:30.630Z,1012.3
2018-02-24T09:47:31.358Z,1012.2
2018-02-24T09:48:32.137Z,1012.2
2018-02-24T09:49:32.899Z,1012.2
2018-02-24T09:50:33.619Z,1012.2
2018-02-24T09:51:34.408Z,1012.3
2018-02-24T09:52:35.136Z,1012.3
2018-02-24T09:53:35.861Z,1012.3
2018-02-24T09:54:36.588Z,1012.3
2018-02-24T09:55:37.379Z,1012.3
2018-02-24T09:56:38.119Z,1012.3
2018-02-24T09:57:38.835Z,1012.4
2018-02-24T09:58:39.570Z,1012.4
2018-02-24T09:59:40.282Z,1012.4
2018-02-24T10:00:41.008Z,1012.4
2018-02-24T10:01:41.801Z,1012.4
2018-02-24T10:02:42.518Z,1012.5
2018-02-24T10:03:43.246Z,1012.4
2018-02-24T10:04:43.979Z,1012.4
2018-02-24T10:05:44.705Z,1012.4
2018-02-24T10:06:45.455Z,1012.4
2018-02-24T10:07:46.231Z,1012.4
2018-02-24T10:08:47.013Z,1012.4
2018-02-24T10:09:47.784Z,1012.4
2018-02-24T10:10:48.500Z,1012.3
2018-02-24T10:11:49.230Z,1012.3
2018-02-24T10:12:49.943Z,1012.3
2018-02-24T10:13:50.674Z,1012.3
2018-02-24T10:14:51.410Z,1012.4
2018-02-24T10:15:52.190Z,1012.3
2018-02-24T10:16:52.937Z,1012.4
2018-02-24T10:17:53.672Z,1012.4
2018-02-24T10:18:54.452Z,1012.4
2018-02-24T10:19:55.126Z,1012.3
2018-02-24T10:20:55.910Z,1012.5
2018-02-24T10:21:56.628Z,1012.3
2018-02-24T10:22:57.354Z,1012.4
2018-02-24T10:23:58.145Z,1012.4
2018-02-24T10:24:58.906Z,1012.4
2018-02-24T10:25:59.609Z,1012.3
2018-02-24T10:27:00.333Z,1012.3
2018-02-24T10:28:01.157Z,1012.3
2018-02-24T10:29:01.895Z,1012.3
2018-02-24T10:30:02.656Z,1012.3
2018-02-24T10:31:03.380Z,1012.3
2018-02-24T10:32:04.099Z,1012.3
2018-02-24T10:33:04.891Z,1012.3
2018-02-24T10:34:05.616Z,1012.3
2018-02-24T10:35:06.336Z,1012.3
2018-02-24T10:36:07.113Z,1012.3
2018-02-24T10:37:07.841Z,1012.4
2018-02-24T10:38:08.630Z,1012.3
2018-02-24T10:39:09.356Z,1012.4
2018-02-24T10:40:10.102Z,1012.4
2018-02-24T10:41:10.877Z,1012.4
2018-02-24T10:42:11.608Z,1012.4
2018-02-24T10:43:12.349Z,1012.5
2018-02-24T10:44:13.079Z,1012.5
2018-02-24T10:45:13.786Z,1012.5
2018-02-24T10:46:14.506Z,1012.5
2018-02-24T10:47:15.324Z,1012.5
2018-02-24T10:48:16.061Z,1012.5
2018-02-24T10:49:16.838Z,1012.5
2018-02-24T10:50:17.570Z,1012.5
2018-02-24T10:51:18.292Z,1012.5
2018-02-24T10:52:19.034Z,1012.5
2018-02-24T10:53:19.776Z,1012.5
2018-02-24T10:54:20.470Z,1012.5
2018-02-24T10:55:21.207Z,1012.5
2018-02-24T10:56:23.241Z,1012.5
2018-02-24T10:57:23.910Z,1012.5
2018-02-24T10:58:25.249Z,1012.5
2018-02-24T10:59:26.224Z,1012.4
2018-02-24T11:00:28.221Z,1012.5
2018-02-24T11:01:29.108Z,1012.5
2018-02-24T11:02:29.831Z,1012.5
2018-02-24T11:03:30.597Z,1012.5
2018-02-24T11:04:31.319Z,1012.5
2018-02-24T11:05:32.047Z,1012.5
2018-02-24T11:06:32.823Z,1012.4
2018-02-24T11:07:33.638Z,1012.4
2018-02-24T11:08:34.405Z,1012.4
2018-02-24T11:09:35.162Z,1012.4
2018-02-24T11:10:35.879Z,1012.5
2018-02-24T11:11:36.597Z,1012.5
2018-02-24T11:12:37.385Z,1012.4
2018-02-24T11:13:38.132Z,1012.4
2018-02-24T11:14:38.912Z,1012.4
2018-02-24T11:15:39.699Z,1012.4
2018-02-24T11:16:40.449Z,1012.4
2018-02-24T11:17:41.192Z,1012.4
2018-02-24T11:18:41.935Z,1012.4
2018-02-24T11:19:42.712Z,1012.4
2018-02-24T11:20:43.492Z,1012.3
2018-02-24T11:21:44.302Z,1012.4
2018-02-24T11:22:45.108Z,1012.4
2018-02-24T11:23:45.820Z,1012.5
2018-02-24T11:24:46.604Z,1012.5
2018-02-24T11:25:47.345Z,1012.5
2018-02-24T11:26:48.113Z,1012.5
2018-02-24T11:27:48.895Z,1012.5
2018-02-24T11:28:49.766Z,1012.5
2018-02-24T11:29:50.479Z,1012.4
2018-02-24T11:30:51.191Z,1012.6
2018-02-24T11:31:51.930Z,1012.5
2018-02-24T11:32:52.649Z,1012.4
2018-02-24T11:33:53.370Z,1012.5
2018-02-24T11:34:54.136Z,1012.5
2018-02-24T11:35:54.865Z,1012.4
2018-02-24T11:36:55.588Z,1012.4
2018-02-24T11:37:56.319Z,1012.5
2018-02-24T11:38:57.044Z,1012.5
2018-02-24T11:39:57.819Z,1012.4
2018-02-24T11:40:58.646Z,1012.5
2018-02-24T11:41:59.365Z,1012.4
2018-02-24T11:43:00.174Z,1012.3
2018-02-24T11:44:00.947Z,1012.3
2018-02-24T11:45:01.672Z,1012.4
2018-02-24T11:46:02.464Z,1012.3
2018-02-24T11:47:03.199Z,1012.4
2018-02-24T11:48:03.918Z,1012.3
2018-02-24T11:49:04.653Z,1012.3
2018-02-24T11:50:05.463Z,1012.3
2018-02-24T11:51:06.230Z,1012.3
2018-02-24T11:52:06.967Z,1012.4
2018-02-24T11:53:07.778Z,1012.3
2018-02-24T11:54:08.500Z,1012.3
2018-02-24T11:55:09.229Z,1012.3
2018-02-24T11:56:10.979Z,1012.3
2018-02-24T11:57:11.830Z,1012.4
2018-02-24T11:58:12.561Z,1012.3
2018-02-24T11:59:13.360Z,1012.4
2018-02-24T12:00:14.090Z,1012.5
2018-02-24T12:01:14.906Z,1012.4
2018-02-24T12:02:15.679Z,1012.4
2018-02-24T12:03:16.453Z,1012.4
2018-02-24T12:04:17.173Z,1012.5
2018-02-24T12:05:17.911Z,1012.3
2018-02-24T12:06:18.643Z,1012.4
2018-02-24T12:07:19.467Z,1012.4
2018-02-24T12:08:20.202Z,1012.5
2018-02-24T12:09:20.985Z,1012.4
2018-02-24T12:10:21.659Z,1012.3
2018-02-24T12:11:22.468Z,1012.4
2018-02-24T12:12:23.190Z,1012.4
2018-02-24T12:13:23.897Z,1012.3
2018-02-24T12:14:24.636Z,1012.3
2018-02-24T12:15:25.367Z,1012.3
2018-02-24T12:16:26.165Z,1012.3
2018-02-24T12:17:26.969Z,1012.3
2018-02-24T12:18:27.728Z,1012.3
2018-02-24T12:19:28.502Z,1012.3
2018-02-24T12:20:29.315Z,1012.3
2018-02-24T12:21:30.072Z,1012.3
2018-02-24T12:22:30.877Z,1012.3
2018-02-24T12:23:31.643Z,1012.3
2018-02-24T12:24:32.379Z,1012.3
2018-02-24T12:25:33.125Z,1012.2
2018-02-24T12:26:33.841Z,1012.3
2018-02-24T12:27:34.560Z,1012.2
2018-02-24T12:28:35.325Z,1012.3
2018-02-24T12:29:36.088Z,1012.3
2018-02-24T12:30:36.869Z,1012.3
2018-02-24T12:31:37.682Z,1012.2
2018-02-24T12:32:38.459Z,1012.3
2018-02-24T12:33:39.202Z,1012.2
2018-02-24T12:34:39.967Z,1012.2
2018-02-24T12:35:40.690Z,1012.2
2018-02-24T12:36:41.435Z,1012.2
2018-02-24T12:37:42.213Z,1012.2